Hearn, Arkansas
Current Conditions -  °F | °C
As of 7:56 AM on Sunday 23 Nov 2014 (Local Time) from KADF Reporting Station
Light Rain Light Rain  
Wind Chill: 60°   Ceiling: 500
Heat Index: 60°   Visibility: 4mi
Dew Point: 60°   Wind: 5mph
Humidity: 100%   Direction: 160°SSE
Pressure: 29.61"   Gusts: NA
Location:  34.0941°N, 93.0475°W
Report Text: KADF 231356Z AUTO 16004KT 4SM -RA BR OVC005 16/16 A2961 RMK AO2 T01550155 CIG 002V008 P0005 SLP040
Loading
Personal Weather Stations






























Interactive Weather Map New forecast layout! Learn more

10-Day Weather Forecast

Advertisements
Track Severe Weather on mobile